Time,TemperatureF,DewpointF,PressureIn,WindDirection,WindDirectionDegrees,WindSpeedMPH,WindSpeedGustMPH,Humidity,HourlyPrecipIn,Conditions,Clouds,dailyrainin,SoftwareType,DateUTC
2013-08-08 00:01:00,70.9,70.0,27.96,WNW,292,0.0,0.0,97,0.00,,---,0.00,VWS V14.01,2013-08-08 04:01:00,
2013-08-08 00:02:00,70.9,70.0,27.96,SE,135,0.0,0.0,97,0.00,,---,0.00,VWS V14.01,2013-08-08 04:02:00,
2013-08-08 00:07:00,70.9,70.0,27.96,SE,135,0.0,0.0,97,0.00,,---,0.00,VWS V14.01,2013-08-08 04:07:00,
2013-08-08 00:12:00,70.9,70.0,27.96,SE,135,0.0,0.0,97,0.00,,---,0.00,VWS V14.01,2013-08-08 04:12:00,
2013-08-08 00:17:00,70.7,69.8,27.96,ESE,112,0.0,0.0,97,0.00,,---,0.00,VWS V14.01,2013-08-08 04:17:00,
2013-08-08 00:22:00,70.7,69.8,27.96,WNW,292,0.0,0.0,97,0.00,,---,0.00,VWS V14.01,2013-08-08 04:22:00,
2013-08-08 00:28:00,70.5,69.6,27.96,NNW,338,0.0,0.0,97,0.00,,---,0.00,VWS V14.01,2013-08-08 04:28:00,
2013-08-08 00:33:00,70.5,69.6,27.96,WNW,292,0.0,0.0,97,0.00,,---,0.00,VWS V14.01,2013-08-08 04:33:00,
2013-08-08 00:38:00,70.3,69.4,27.96,WNW,292,0.0,0.0,97,0.00,,---,0.00,VWS V14.01,2013-08-08 04:38:00,
2013-08-08 00:43:00,70.3,69.4,27.96,WNW,292,0.0,0.0,97,0.00,,---,0.00,VWS V14.01,2013-08-08 04:43:00,
2013-08-08 00:48:00,70.2,69.3,27.96,WNW,292,0.0,0.0,97,0.00,,---,0.00,VWS V14.01,2013-08-08 04:48:00,
2013-08-08 00:53:00,70.2,69.3,27.96,WNW,292,0.0,0.0,97,0.00,,---,0.00,VWS V14.01,2013-08-08 04:53:00,
2013-08-08 00:58:00,70.2,69.0,27.96,WNW,292,0.0,0.0,96,0.00,,---,0.00,VWS V14.01,2013-08-08 04:58:00,
2013-08-08 01:03:00,70.0,68.8,27.96,WNW,292,0.0,0.0,96,0.00,,---,0.00,VWS V14.01,2013-08-08 05:03:00,
2013-08-08 01:08:00,70.0,68.8,27.96,WNW,292,0.0,0.0,96,0.00,,---,0.00,VWS V14.01,2013-08-08 05:08:00,
2013-08-08 01:13:00,69.8,68.6,27.96,WNW,292,0.0,0.0,96,0.00,,---,0.00,VWS V14.01,2013-08-08 05:13:00,
2013-08-08 01:18:00,69.8,68.6,27.96,WNW,292,0.0,0.0,96,0.00,,---,0.00,VWS V14.01,2013-08-08 05:18:00,
2013-08-08 01:23:00,69.6,68.7,27.96,WNW,292,0.0,0.0,97,0.00,,---,0.00,VWS V14.01,2013-08-08 05:23:00,
2013-08-08 01:28:00,69.6,68.7,27.96,WNW,292,0.0,0.0,97,0.00,,---,0.00,VWS V14.01,2013-08-08 05:28:00,
2013-08-08 01:33:00,69.6,68.7,27.96,WNW,292,0.0,0.0,97,0.00,,---,0.00,VWS V14.01,2013-08-08 05:33:00,
2013-08-08 01:39:00,69.6,68.7,27.96,WNW,292,0.0,0.0,97,0.00,,---,0.00,VWS V14.01,2013-08-08 05:39:00,
2013-08-08 01:44:00,69.4,68.6,27.96,WNW,292,0.0,0.0,97,0.00,,---,0.00,VWS V14.01,2013-08-08 05:44:00,
2013-08-08 01:49:00,69.4,68.6,27.96,WNW,292,0.0,0.0,97,0.00,,---,0.00,VWS V14.01,2013-08-08 05:49:00,
2013-08-08 01:54:00,69.4,68.6,27.96,WNW,292,0.0,0.0,97,0.00,,---,0.00,VWS V14.01,2013-08-08 05:54:00,
2013-08-08 01:59:00,69.3,68.4,27.96,WNW,292,0.0,0.0,97,0.00,,---,0.00,VWS V14.01,2013-08-08 05:59:00,
2013-08-08 02:04:00,69.3,68.4,27.96,WNW,292,0.0,0.0,97,0.00,,---,0.00,VWS V14.01,2013-08-08 06:04:00,
2013-08-08 02:09:00,69.3,68.4,27.96,WNW,292,0.0,0.0,97,0.00,,---,0.00,VWS V14.01,2013-08-08 06:09:00,
2013-08-08 02:14:00,69.3,68.4,27.96,WNW,292,0.0,0.0,97,0.00,,---,0.00,VWS V14.01,2013-08-08 06:14:00,
2013-08-08 02:19:00,69.3,68.4,27.96,WNW,292,0.0,0.0,97,0.00,,---,0.00,VWS V14.01,2013-08-08 06:19:00,
2013-08-08 02:24:00,69.3,68.4,27.96,WNW,292,0.0,0.0,97,0.00,,---,0.00,VWS V14.01,2013-08-08 06:24:00,
2013-08-08 02:29:00,69.3,68.4,27.96,WNW,292,0.0,0.0,97,0.00,,---,0.00,VWS V14.01,2013-08-08 06:29:00,
2013-08-08 02:34:00,69.3,68.4,27.96,WNW,292,0.0,0.0,97,0.00,,---,0.00,VWS V14.01,2013-08-08 06:34:00,
2013-08-08 02:39:00,69.1,68.2,27.96,WNW,292,0.0,0.0,97,0.00,,---,0.00,VWS V14.01,2013-08-08 06:39:00,
2013-08-08 02:44:00,69.1,68.2,27.96,WNW,292,0.0,0.0,97,0.00,,---,0.00,VWS V14.01,2013-08-08 06:44:00,
2013-08-08 02:49:00,69.1,68.2,27.96,WNW,292,0.0,0.0,97,0.00,,---,0.00,VWS V14.01,2013-08-08 06:49:00,
2013-08-08 02:54:00,69.1,68.2,27.93,WNW,292,0.0,0.0,97,0.00,,---,0.00,VWS V14.01,2013-08-08 06:54:00,
2013-08-08 03:00:00,69.1,68.2,27.93,WNW,292,0.0,0.0,97,0.00,,---,0.00,VWS V14.01,2013-08-08 07:00:00,
2013-08-08 03:05:00,69.1,68.2,27.93,WNW,292,0.0,0.0,97,0.00,,---,0.00,VWS V14.01,2013-08-08 07:05:00,
2013-08-08 03:10:00,69.1,68.2,27.96,WNW,292,0.0,0.0,97,0.00,,---,0.00,VWS V14.01,2013-08-08 07:10:00,
2013-08-08 03:15:00,69.1,68.2,27.96,WNW,292,0.0,0.0,97,0.00,,---,0.00,VWS V14.01,2013-08-08 07:15:00,
2013-08-08 03:20:00,69.1,68.2,27.96,WNW,292,0.0,0.0,97,0.00,,---,0.00,VWS V14.01,2013-08-08 07:20:00,
2013-08-08 03:25:00,69.1,68.2,27.93,WNW,292,0.0,0.0,97,0.00,,---,0.00,VWS V14.01,2013-08-08 07:25:00,
2013-08-08 03:30:00,69.3,68.4,27.93,WNW,292,0.0,0.0,97,0.00,,---,0.00,VWS V14.01,2013-08-08 07:30:00,
2013-08-08 03:35:00,69.3,68.4,27.93,WNW,292,0.0,0.0,97,0.00,,---,0.00,VWS V14.01,2013-08-08 07:35:00,
2013-08-08 03:40:00,69.3,68.4,27.93,WNW,292,0.0,0.0,97,0.00,,---,0.00,VWS V14.01,2013-08-08 07:40:00,
2013-08-08 03:45:00,69.3,68.4,27.93,WNW,292,0.0,0.0,97,0.00,,---,0.00,VWS V14.01,2013-08-08 07:45:00,
2013-08-08 03:50:00,69.3,68.4,27.93,WNW,292,0.0,0.0,97,0.00,,---,0.00,VWS V14.01,2013-08-08 07:50:00,
2013-08-08 03:55:00,69.3,68.4,27.93,WNW,292,0.0,0.0,97,0.00,,---,0.00,VWS V14.01,2013-08-08 07:55:00,
2013-08-08 04:00:00,69.3,68.4,27.93,WNW,292,0.0,0.0,97,0.00,,---,0.00,VWS V14.01,2013-08-08 08:00:00,
2013-08-08 04:06:00,69.3,68.4,27.93,WNW,292,0.0,0.0,97,0.00,,---,0.00,VWS V14.01,2013-08-08 08:06:00,
2013-08-08 04:11:00,69.3,68.4,27.93,WNW,292,0.0,0.0,97,0.00,,---,0.00,VWS V14.01,2013-08-08 08:11:00,
2013-08-08 04:16:00,69.3,68.4,27.93,WNW,292,0.0,0.0,97,0.00,,---,0.00,VWS V14.01,2013-08-08 08:16:00,
2013-08-08 04:21:00,69.1,68.2,27.93,WNW,292,0.0,0.0,97,0.00,,---,0.00,VWS V14.01,2013-08-08 08:21:00,
2013-08-08 04:26:00,69.1,68.2,27.93,WNW,292,0.0,0.0,97,0.00,,---,0.00,VWS V14.01,2013-08-08 08:26:00,
2013-08-08 04:31:00,69.1,68.2,27.93,WNW,292,0.0,0.0,97,0.00,,---,0.00,VWS V14.01,2013-08-08 08:31:00,
2013-08-08 04:36:00,69.1,68.2,27.93,WNW,292,0.0,0.0,97,0.00,,---,0.00,VWS V14.01,2013-08-08 08:36:00,
2013-08-08 04:41:00,69.1,68.2,27.93,WNW,292,0.0,0.0,97,0.00,,---,0.00,VWS V14.01,2013-08-08 08:41:00,
2013-08-08 04:46:00,69.1,68.2,27.93,WNW,292,0.0,0.0,97,0.00,,---,0.00,VWS V14.01,2013-08-08 08:46:00,
2013-08-08 04:51:00,69.1,68.2,27.93,WNW,292,0.0,0.0,97,0.00,,---,0.00,VWS V14.01,2013-08-08 08:51:00,
2013-08-08 04:56:00,69.1,68.2,27.93,WNW,292,0.0,0.0,97,0.00,,---,0.00,VWS V14.01,2013-08-08 08:56:00,
2013-08-08 05:01:00,69.1,68.2,27.93,WNW,292,0.0,0.0,97,0.00,,---,0.00,VWS V14.01,2013-08-08 09:01:00,
2013-08-08 05:07:00,69.1,68.2,27.93,WNW,292,0.0,0.0,97,0.00,,---,0.00,VWS V14.01,2013-08-08 09:07:00,
2013-08-08 05:12:00,68.9,68.0,27.93,WNW,292,0.0,0.0,97,0.00,,---,0.00,VWS V14.01,2013-08-08 09:12:00,
2013-08-08 05:17:00,68.9,68.0,27.93,WNW,292,0.0,0.0,97,0.00,,---,0.00,VWS V14.01,2013-08-08 09:17:00,
2013-08-08 05:22:00,68.9,68.0,27.93,WNW,292,0.0,0.0,97,0.00,,---,0.00,VWS V14.01,2013-08-08 09:22:00,
2013-08-08 05:27:00,68.9,68.0,27.93,WNW,292,0.0,0.0,97,0.00,,---,0.00,VWS V14.01,2013-08-08 09:27:00,
2013-08-08 05:32:00,68.9,68.0,27.93,WNW,292,0.0,0.0,97,0.00,,---,0.00,VWS V14.01,2013-08-08 09:32:00,
2013-08-08 05:37:00,69.1,68.2,27.93,WNW,292,0.0,0.0,97,0.00,,---,0.00,VWS V14.01,2013-08-08 09:37:00,
2013-08-08 05:42:00,69.1,68.2,27.93,WNW,292,0.0,0.0,97,0.00,,---,0.00,VWS V14.01,2013-08-08 09:42:00,
2013-08-08 05:47:00,69.1,68.2,27.93,WNW,292,0.0,0.0,97,0.00,,---,0.00,VWS V14.01,2013-08-08 09:47:00,
2013-08-08 05:52:00,69.1,68.2,27.93,WNW,292,0.0,0.0,97,0.00,,---,0.00,VWS V14.01,2013-08-08 09:52:00,
2013-08-08 05:57:00,69.1,68.2,27.93,WNW,292,0.0,0.0,97,0.00,,---,0.00,VWS V14.01,2013-08-08 09:57:00,
2013-08-08 06:02:00,69.1,68.2,27.93,ENE,68,0.0,0.0,97,0.00,,---,0.00,VWS V14.01,2013-08-08 10:02:00,
2013-08-08 06:07:00,69.1,68.2,27.93,ENE,68,0.0,0.0,97,0.00,,---,0.00,VWS V14.01,2013-08-08 10:07:00,
2013-08-08 06:13:00,69.1,68.2,27.93,WNW,292,0.0,0.0,97,0.00,,---,0.00,VWS V14.01,2013-08-08 10:13:00,
2013-08-08 06:18:00,69.1,68.2,27.93,SE,135,0.0,0.0,97,0.00,,---,0.00,VWS V14.01,2013-08-08 10:18:00,
2013-08-08 06:23:00,69.3,68.4,27.93,East,90,0.0,0.0,97,0.00,,---,0.00,VWS V14.01,2013-08-08 10:23:00,
2013-08-08 06:28:00,69.3,68.4,27.93,East,90,0.0,0.0,97,0.00,,---,0.00,VWS V14.01,2013-08-08 10:28:00,
2013-08-08 06:33:00,69.3,68.4,27.93,East,90,0.0,0.0,97,0.00,,---,0.00,VWS V14.01,2013-08-08 10:33:00,
2013-08-08 06:38:00,69.3,68.4,27.93,East,90,0.0,0.0,97,0.00,,---,0.00,VWS V14.01,2013-08-08 10:38:00,
2013-08-08 06:43:00,69.3,68.4,27.93,East,90,0.0,0.0,97,0.00,,---,0.00,VWS V14.01,2013-08-08 10:43:00,
2013-08-08 06:48:00,69.3,68.4,27.93,East,90,0.0,0.0,97,0.00,,---,0.00,VWS V14.01,2013-08-08 10:48:00,
2013-08-08 06:53:00,69.3,68.4,27.93,East,90,0.0,0.0,97,0.00,,---,0.00,VWS V14.01,2013-08-08 10:53:00,
2013-08-08 06:58:00,69.3,68.4,27.93,East,90,0.0,0.0,97,0.00,,---,0.00,VWS V14.01,2013-08-08 10:58:00,
2013-08-08 07:03:00,69.3,68.4,27.93,SSE,158,0.0,0.0,97,0.00,,---,0.00,VWS V14.01,2013-08-08 11:03:00,
2013-08-08 07:08:00,69.3,68.4,27.96,SSE,158,0.0,0.0,97,0.00,,---,0.00,VWS V14.01,2013-08-08 11:08:00,
2013-08-08 07:13:00,69.3,68.4,27.96,SSE,158,0.0,0.0,97,0.00,,---,0.00,VWS V14.01,2013-08-08 11:13:00,
2013-08-08 07:18:00,69.4,68.6,27.96,ESE,112,0.0,0.0,97,0.00,,---,0.00,VWS V14.01,2013-08-08 11:18:00,
2013-08-08 07:23:00,69.4,68.6,27.96,ESE,112,0.0,0.0,97,0.00,,---,0.00,VWS V14.01,2013-08-08 11:23:00,
2013-08-08 07:29:00,69.4,68.6,27.96,SE,135,0.0,0.0,97,0.00,,---,0.00,VWS V14.01,2013-08-08 11:29:00,
2013-08-08 07:34:00,69.4,68.6,27.96,East,90,0.0,0.0,97,0.00,,---,0.00,VWS V14.01,2013-08-08 11:34:00,
2013-08-08 07:39:00,69.6,68.7,27.96,ENE,68,0.0,0.0,97,0.00,,---,0.00,VWS V14.01,2013-08-08 11:39:00,
2013-08-08 07:44:00,69.6,68.7,27.96,South,180,0.0,0.9,97,0.00,,---,0.00,VWS V14.01,2013-08-08 11:44:00,
2013-08-08 07:49:00,69.6,68.7,27.96,East,90,0.0,0.0,97,0.00,,---,0.00,VWS V14.01,2013-08-08 11:49:00,
2013-08-08 07:54:00,69.6,68.4,27.96,East,90,0.0,0.0,96,0.00,,---,0.00,VWS V14.01,2013-08-08 11:54:00,
2013-08-08 07:59:00,69.6,68.4,27.96,ESE,112,0.0,0.0,96,0.00,,---,0.00,VWS V14.01,2013-08-08 11:59:00,
2013-08-08 08:04:00,69.6,68.4,27.96,ENE,68,0.0,0.0,96,0.00,,---,0.00,VWS V14.01,2013-08-08 12:04:00,
2013-08-08 08:09:00,69.6,68.4,27.96,East,90,0.0,0.0,96,0.00,,---,0.00,VWS V14.01,2013-08-08 12:09:00,
2013-08-08 08:14:00,69.6,68.4,27.96,East,90,0.0,0.0,96,0.00,,---,0.00,VWS V14.01,2013-08-08 12:14:00,
2013-08-08 08:19:00,69.6,68.4,27.96,East,90,0.0,0.0,96,0.00,,---,0.00,VWS V14.01,2013-08-08 12:19:00,
2013-08-08 08:25:00,69.6,68.4,27.96,NE,45,0.0,0.0,96,0.00,,---,0.00,VWS V14.01,2013-08-08 12:25:00,
2013-08-08 08:30:00,69.6,68.4,27.96,ENE,68,0.0,0.0,96,0.00,,---,0.00,VWS V14.01,2013-08-08 12:30:00,
2013-08-08 08:35:00,69.8,68.6,27.96,East,90,0.0,0.0,96,0.00,,---,0.00,VWS V14.01,2013-08-08 12:35:00,
2013-08-08 08:40:00,69.8,68.6,27.96,East,90,0.0,0.0,96,0.00,,---,0.00,VWS V14.01,2013-08-08 12:40:00,
2013-08-08 08:45:00,69.8,68.6,27.96,East,90,0.0,0.0,96,0.00,,---,0.00,VWS V14.01,2013-08-08 12:45:00,
2013-08-08 08:50:00,69.8,68.6,27.96,ENE,68,0.0,0.0,96,0.00,,---,0.00,VWS V14.01,2013-08-08 12:50:00,
2013-08-08 08:55:00,69.8,68.6,27.96,South,180,0.0,0.0,96,0.00,,---,0.00,VWS V14.01,2013-08-08 12:55:00,
2013-08-08 09:00:00,69.8,68.6,27.96,ESE,112,0.0,0.0,96,0.00,,---,0.00,VWS V14.01,2013-08-08 13:00:00,
2013-08-08 09:05:00,69.8,68.6,27.96,ESE,112,0.0,0.0,96,0.00,,---,0.00,VWS V14.01,2013-08-08 13:05:00,
2013-08-08 09:10:00,70.0,68.8,27.96,ENE,68,0.0,0.0,96,0.00,,---,0.00,VWS V14.01,2013-08-08 13:10:00,
2013-08-08 09:15:00,70.0,68.8,27.96,SE,135,0.0,0.0,96,0.00,,---,0.00,VWS V14.01,2013-08-08 13:15:00,
2013-08-08 09:20:00,70.2,69.0,27.96,SSE,158,0.0,0.0,96,0.00,,---,0.00,VWS V14.01,2013-08-08 13:20:00,
2013-08-08 09:25:00,70.2,69.0,27.96,ESE,112,0.0,0.0,96,0.00,,---,0.00,VWS V14.01,2013-08-08 13:25:00,
2013-08-08 09:30:00,70.3,69.2,27.96,South,180,0.0,0.0,96,0.00,,---,0.00,VWS V14.01,2013-08-08 13:30:00,
2013-08-08 09:35:00,70.3,69.2,27.96,SSW,202,0.0,0.0,96,0.00,,---,0.00,VWS V14.01,2013-08-08 13:35:00,
2013-08-08 09:41:00,70.3,69.2,27.96,South,180,0.0,0.0,96,0.00,,---,0.00,VWS V14.01,2013-08-08 13:41:00,
2013-08-08 09:46:00,70.5,69.3,27.96,South,180,0.0,1.6,96,0.00,,---,0.00,VWS V14.01,2013-08-08 13:46:00,
2013-08-08 09:51:00,70.7,69.5,27.96,SE,135,0.0,0.0,96,0.00,,---,0.00,VWS V14.01,2013-08-08 13:51:00,
2013-08-08 09:56:00,70.9,69.7,27.96,South,180,0.0,0.0,96,0.00,,---,0.00,VWS V14.01,2013-08-08 13:56:00,
2013-08-08 10:01:00,70.9,69.7,27.96,SW,225,0.0,0.9,96,0.00,,---,0.00,VWS V14.01,2013-08-08 14:01:00,
2013-08-08 10:06:00,71.1,69.9,27.96,SSW,202,0.0,0.0,96,0.00,,---,0.00,VWS V14.01,2013-08-08 14:06:00,
2013-08-08 10:11:00,71.4,70.2,27.99,SSW,202,0.0,0.0,96,0.00,,---,0.00,VWS V14.01,2013-08-08 14:11:00,
2013-08-08 10:16:00,71.4,70.2,27.99,SSW,202,0.0,0.0,96,0.00,,---,0.00,VWS V14.01,2013-08-08 14:16:00,
2013-08-08 10:21:00,71.6,70.1,27.99,SE,135,0.0,0.0,95,0.00,,---,0.00,VWS V14.01,2013-08-08 14:21:00,
2013-08-08 10:26:00,71.6,70.1,27.99,SSW,202,0.0,0.0,95,0.00,,---,0.00,VWS V14.01,2013-08-08 14:26:00,
2013-08-08 10:31:00,71.6,70.1,27.99,ESE,112,0.0,0.0,95,0.00,,---,0.00,VWS V14.01,2013-08-08 14:31:00,
2013-08-08 10:36:00,71.8,70.3,27.99,ESE,112,0.0,0.0,95,0.00,,---,0.00,VWS V14.01,2013-08-08 14:36:00,
2013-08-08 10:41:00,72.0,70.4,27.99,ESE,112,0.0,0.0,95,0.00,,---,0.00,VWS V14.01,2013-08-08 14:41:00,
2013-08-08 10:47:00,72.0,70.4,27.99,ESE,112,0.0,0.0,95,0.00,,---,0.00,VWS V14.01,2013-08-08 14:47:00,
2013-08-08 10:52:00,72.0,70.4,27.99,South,180,0.0,0.0,95,0.00,,---,0.00,VWS V14.01,2013-08-08 14:52:00,
2013-08-08 10:57:00,72.1,70.6,27.99,SE,135,0.0,0.0,95,0.00,,---,0.00,VWS V14.01,2013-08-08 14:57:00,
2013-08-08 11:02:00,72.5,71.0,27.99,SE,135,0.0,0.0,95,0.00,,---,0.00,VWS V14.01,2013-08-08 15:02:00,
2013-08-08 11:07:00,72.7,71.2,27.99,South,180,0.0,0.0,95,0.00,,---,0.00,VWS V14.01,2013-08-08 15:07:00,
2013-08-08 11:12:00,72.9,71.3,27.99,South,180,0.0,0.0,95,0.00,,---,0.00,VWS V14.01,2013-08-08 15:12:00,
2013-08-08 11:17:00,73.0,71.5,27.99,South,180,0.0,0.0,95,0.00,,---,0.00,VWS V14.01,2013-08-08 15:17:00,
2013-08-08 11:22:00,73.4,71.9,27.99,ESE,112,0.0,0.0,95,0.00,,---,0.00,VWS V14.01,2013-08-08 15:22:00,
2013-08-08 11:27:00,73.8,72.2,27.99,SE,135,0.0,0.0,95,0.00,,---,0.00,VWS V14.01,2013-08-08 15:27:00,
2013-08-08 11:32:00,73.9,72.4,27.99,ESE,112,0.0,0.0,95,0.00,,---,0.00,VWS V14.01,2013-08-08 15:32:00,
2013-08-08 11:37:00,73.9,72.4,27.99,SSE,158,0.0,0.0,95,0.00,,---,0.00,VWS V14.01,2013-08-08 15:37:00,
2013-08-08 11:42:00,74.7,73.1,27.99,SSE,158,0.0,0.0,95,0.00,,---,0.00,VWS V14.01,2013-08-08 15:42:00,
2013-08-08 11:47:00,75.4,73.5,27.99,East,90,0.0,0.0,94,0.00,,---,0.00,VWS V14.01,2013-08-08 15:47:00,
2013-08-08 11:53:00,76.1,73.9,27.99,East,90,0.0,0.0,93,0.00,,---,0.00,VWS V14.01,2013-08-08 15:53:00,
2013-08-08 11:57:00,76.1,73.9,27.99,NNE,22,0.0,0.0,93,0.00,,---,0.00,VWS V14.01,2013-08-08 15:57:00,
2013-08-08 12:03:00,76.1,73.6,27.99,SSE,158,0.0,0.9,92,0.00,,---,0.00,VWS V14.01,2013-08-08 16:03:00,
2013-08-08 12:08:00,76.5,74.0,27.99,SSE,158,0.0,0.0,92,0.00,,---,0.00,VWS V14.01,2013-08-08 16:08:00,
2013-08-08 12:13:00,76.6,74.2,27.99,SE,135,0.0,1.3,92,0.00,,---,0.00,VWS V14.01,2013-08-08 16:13:00,
2013-08-08 12:18:00,76.5,73.6,27.99,South,180,0.0,0.0,91,0.00,,---,0.00,VWS V14.01,2013-08-08 16:18:00,
2013-08-08 12:23:00,76.3,73.5,27.99,ESE,112,0.0,0.0,91,0.00,,---,0.00,VWS V14.01,2013-08-08 16:23:00,
2013-08-08 12:28:00,76.5,73.6,27.99,North,0,0.0,0.0,91,0.00,,---,0.00,VWS V14.01,2013-08-08 16:28:00,
2013-08-08 12:33:00,76.5,73.6,27.99,SSW,202,0.0,0.0,91,0.00,,---,0.00,VWS V14.01,2013-08-08 16:33:00,
2013-08-08 12:38:00,76.6,73.8,27.99,South,180,0.0,0.0,91,0.00,,---,0.00,VWS V14.01,2013-08-08 16:38:00,
2013-08-08 12:43:00,76.8,73.7,27.99,SSE,158,0.0,0.0,90,0.00,,---,0.00,VWS V14.01,2013-08-08 16:43:00,
2013-08-08 12:49:00,76.6,73.5,27.99,SSE,158,0.0,0.0,90,0.00,,---,0.00,VWS V14.01,2013-08-08 16:49:00,
2013-08-08 12:54:00,76.6,73.8,27.99,SSE,158,0.0,0.0,91,0.00,,---,0.00,VWS V14.01,2013-08-08 16:54:00,
2013-08-08 12:59:00,76.8,73.7,27.99,SSE,158,0.0,0.0,90,0.00,,---,0.00,VWS V14.01,2013-08-08 16:59:00,
2013-08-08 13:04:00,77.0,73.5,27.99,SSE,158,0.0,0.0,89,0.00,,---,0.00,VWS V14.01,2013-08-08 17:04:00,
2013-08-08 13:09:00,77.0,73.5,27.99,SSE,158,0.0,0.0,89,0.00,,---,0.00,VWS V14.01,2013-08-08 17:09:00,
2013-08-08 13:14:00,77.2,74.0,27.99,SSE,158,0.0,0.0,90,0.00,,---,0.00,VWS V14.01,2013-08-08 17:14:00,
2013-08-08 13:19:00,77.7,74.6,27.99,East,90,0.0,0.0,90,0.00,,---,0.00,VWS V14.01,2013-08-08 17:19:00,
2013-08-08 13:24:00,78.3,75.1,27.99,SW,225,0.0,0.0,90,0.00,,---,0.00,VWS V14.01,2013-08-08 17:24:00,
2013-08-08 13:29:00,78.4,74.9,27.99,SW,225,0.0,0.0,89,0.00,,---,0.00,VWS V14.01,2013-08-08 17:29:00,
2013-08-08 13:34:00,78.1,74.6,27.99,WNW,292,0.0,0.0,89,0.00,,---,0.00,VWS V14.01,2013-08-08 17:34:00,
2013-08-08 13:39:00,77.7,74.2,27.99,NW,315,0.0,0.0,89,0.00,,---,0.00,VWS V14.01,2013-08-08 17:39:00,
2013-08-08 13:44:00,77.4,73.9,27.99,WNW,292,0.0,0.0,89,0.00,,---,0.00,VWS V14.01,2013-08-08 17:44:00,
2013-08-08 13:49:00,77.4,73.9,27.99,WNW,292,0.0,0.0,89,0.00,,---,0.00,VWS V14.01,2013-08-08 17:49:00,
2013-08-08 13:54:00,77.7,74.6,27.96,WNW,292,0.0,0.0,90,0.00,,---,0.00,VWS V14.01,2013-08-08 17:54:00,
2013-08-08 13:59:00,77.7,74.2,27.96,WSW,248,0.0,0.0,89,0.00,,---,0.00,VWS V14.01,2013-08-08 17:59:00,
2013-08-08 14:04:00,77.9,74.4,27.96,ESE,112,0.0,0.0,89,0.00,,---,0.00,VWS V14.01,2013-08-08 18:04:00,
2013-08-08 14:09:00,78.1,74.6,27.96,ESE,112,0.0,0.0,89,0.00,,---,0.00,VWS V14.01,2013-08-08 18:09:00,
2013-08-08 14:14:00,78.4,74.9,27.96,SE,135,0.0,0.0,89,0.00,,---,0.00,VWS V14.01,2013-08-08 18:14:00,
2013-08-08 14:19:00,78.8,74.9,27.96,SE,135,0.0,0.0,88,0.00,,---,0.00,VWS V14.01,2013-08-08 18:19:00,
2013-08-08 14:24:00,79.0,75.1,27.96,SE,135,0.0,0.0,88,0.00,,---,0.00,VWS V14.01,2013-08-08 18:24:00,
2013-08-08 14:30:00,79.9,76.0,27.96,East,90,0.0,0.0,88,0.00,,---,0.00,VWS V14.01,2013-08-08 18:30:00,
2013-08-08 14:35:00,80.1,75.5,27.96,SE,135,0.0,0.0,86,0.00,,---,0.00,VWS V14.01,2013-08-08 18:35:00,
2013-08-08 14:40:00,80.4,76.2,27.96,SE,135,0.0,0.0,87,0.00,,---,0.00,VWS V14.01,2013-08-08 18:40:00,
2013-08-08 14:45:00,80.8,76.2,27.96,NE,45,0.9,1.3,86,0.00,,---,0.00,VWS V14.01,2013-08-08 18:45:00,
2013-08-08 14:50:00,81.1,76.2,27.96,ESE,112,0.9,0.9,85,0.00,,---,0.00,VWS V14.01,2013-08-08 18:50:00,
2013-08-08 14:55:00,80.6,76.0,27.96,SE,135,0.0,0.0,86,0.00,,---,0.00,VWS V14.01,2013-08-08 18:55:00,
2013-08-08 15:00:00,80.6,76.0,27.96,SE,135,0.0,0.0,86,0.00,,---,0.00,VWS V14.01,2013-08-08 19:00:00,
2013-08-08 15:05:00,81.1,76.6,27.96,WNW,292,0.0,0.0,86,0.00,,---,0.00,VWS V14.01,2013-08-08 19:05:00,
2013-08-08 15:10:00,81.3,76.0,27.93,SSE,158,0.0,0.0,84,0.00,,---,0.00,VWS V14.01,2013-08-08 19:10:00,
2013-08-08 15:15:00,81.3,76.0,27.93,WNW,292,0.9,0.9,84,0.00,,---,0.00,VWS V14.01,2013-08-08 19:15:00,
2013-08-08 15:20:00,81.9,76.6,27.93,ESE,112,0.0,0.0,84,0.00,,---,0.00,VWS V14.01,2013-08-08 19:20:00,
2013-08-08 15:25:00,82.4,77.1,27.93,SE,135,0.9,0.9,84,0.00,,---,0.00,VWS V14.01,2013-08-08 19:25:00,
2013-08-08 15:30:00,83.5,76.7,27.93,NE,45,0.0,0.9,80,0.00,,---,0.00,VWS V14.01,2013-08-08 19:30:00,
2013-08-08 15:36:00,84.6,77.3,27.93,ESE,112,0.0,0.9,79,0.00,,---,0.00,VWS V14.01,2013-08-08 19:36:00,
2013-08-08 15:41:00,85.5,77.8,27.93,ESE,112,0.0,0.0,78,0.00,,---,0.00,VWS V14.01,2013-08-08 19:41:00,
2013-08-08 15:46:00,85.3,76.9,27.93,East,90,0.0,3.4,76,0.00,,---,0.00,VWS V14.01,2013-08-08 19:46:00,
2013-08-08 15:51:00,85.6,77.2,27.96,SSW,202,0.0,0.0,76,0.00,,---,0.00,VWS V14.01,2013-08-08 19:51:00,
2013-08-08 15:56:00,85.3,76.1,27.96,East,90,2.5,2.5,74,0.00,,---,0.00,VWS V14.01,2013-08-08 19:56:00,
2013-08-08 16:01:00,84.9,75.7,27.96,East,90,0.0,1.6,74,0.00,,---,0.00,VWS V14.01,2013-08-08 20:01:00,
2013-08-08 16:06:00,84.7,75.1,27.93,East,90,0.0,0.9,73,0.00,,---,0.00,VWS V14.01,2013-08-08 20:06:00,
2013-08-08 16:11:00,84.7,75.5,27.93,SSW,202,0.0,0.0,74,0.00,,---,0.00,VWS V14.01,2013-08-08 20:11:00,
2013-08-08 16:16:00,85.3,76.1,27.93,East,90,0.0,0.0,74,0.00,,---,0.00,VWS V14.01,2013-08-08 20:16:00,
2013-08-08 16:21:00,84.7,73.9,27.96,SE,135,0.0,1.1,70,0.00,,---,0.00,VWS V14.01,2013-08-08 20:21:00,
2013-08-08 16:26:00,84.0,74.0,27.96,South,180,0.0,0.0,72,0.00,,---,0.00,VWS V14.01,2013-08-08 20:26:00,
2013-08-08 16:31:00,83.5,74.3,27.96,SSE,158,0.0,0.0,74,0.00,,---,0.00,VWS V14.01,2013-08-08 20:31:00,
2013-08-08 16:36:00,82.9,73.8,27.93,SSE,158,0.0,0.0,74,0.00,,---,0.00,VWS V14.01,2013-08-08 20:36:00,
2013-08-08 16:41:00,82.9,74.2,27.93,South,180,0.0,0.0,75,0.00,,---,0.00,VWS V14.01,2013-08-08 20:41:00,
2013-08-08 16:47:00,82.9,74.6,27.93,South,180,0.0,1.6,76,0.00,,---,0.00,VWS V14.01,2013-08-08 20:47:00,
2013-08-08 16:52:00,82.2,74.7,27.93,SSW,202,0.0,1.1,78,0.00,,---,0.00,VWS V14.01,2013-08-08 20:52:00,
2013-08-08 16:57:00,81.9,74.7,27.93,East,90,0.0,1.1,79,0.00,,---,0.00,VWS V14.01,2013-08-08 20:57:00,
2013-08-08 17:02:00,81.7,74.5,27.93,SE,135,0.0,0.0,79,0.00,,---,0.00,VWS V14.01,2013-08-08 21:02:00,
2013-08-08 17:07:00,81.3,74.2,27.93,NW,315,0.0,0.0,79,0.00,,---,0.00,VWS V14.01,2013-08-08 21:07:00,
2013-08-08 17:13:00,81.0,73.8,27.93,SE,135,0.0,0.0,79,0.00,,---,0.00,VWS V14.01,2013-08-08 21:13:00,
2013-08-08 17:18:00,80.8,73.7,27.93,WSW,248,0.0,0.0,79,0.00,,---,0.00,VWS V14.01,2013-08-08 21:18:00,
2013-08-08 17:23:00,80.4,73.3,27.96,WSW,248,0.0,0.0,79,0.00,,---,0.00,VWS V14.01,2013-08-08 21:23:00,
2013-08-08 17:28:00,78.8,70.2,27.96,SSE,158,0.0,1.3,75,0.00,,---,0.00,VWS V14.01,2013-08-08 21:28:00,
2013-08-08 17:34:00,76.3,68.6,27.96,ESE,112,0.9,1.1,77,0.00,,---,0.00,VWS V14.01,2013-08-08 21:34:00,
2013-08-08 17:39:00,75.0,68.4,27.96,East,90,2.2,2.2,80,0.00,,---,0.00,VWS V14.01,2013-08-08 21:39:00,
2013-08-08 17:44:00,74.3,68.4,27.96,NW,315,0.0,1.1,82,0.00,,---,0.00,VWS V14.01,2013-08-08 21:44:00,
2013-08-08 17:49:00,73.8,68.6,27.96,West,270,0.9,0.9,84,0.00,,---,0.00,VWS V14.01,2013-08-08 21:49:00,
2013-08-08 17:54:00,73.6,68.8,27.96,West,270,0.0,0.0,85,0.00,,---,0.00,VWS V14.01,2013-08-08 21:54:00,
2013-08-08 17:59:00,73.4,69.0,27.96,WNW,292,0.0,0.0,86,0.00,,---,0.00,VWS V14.01,2013-08-08 21:59:00,
2013-08-08 18:04:00,73.4,69.0,27.96,WSW,248,0.0,0.0,86,0.00,,---,0.00,VWS V14.01,2013-08-08 22:04:00,
2013-08-08 18:09:00,72.0,68.6,27.99,West,270,0.0,0.0,89,0.00,,---,0.00,VWS V14.01,2013-08-08 22:09:00,
2013-08-08 18:14:00,70.5,67.8,27.99,South,180,0.9,4.0,91,0.00,,---,0.00,VWS V14.01,2013-08-08 22:14:00,
2013-08-08 18:19:00,68.9,66.2,27.99,NE,45,0.0,0.0,91,0.00,,---,0.00,VWS V14.01,2013-08-08 22:19:00,
2013-08-08 18:24:00,68.5,66.1,27.99,NE,45,0.0,0.0,92,0.00,,---,0.00,VWS V14.01,2013-08-08 22:24:00,
2013-08-08 18:29:00,68.5,66.1,27.99,WNW,292,0.0,0.0,92,0.00,,---,0.00,VWS V14.01,2013-08-08 22:29:00,
2013-08-08 18:35:00,68.4,66.3,27.99,NE,45,0.0,0.0,93,0.00,,---,0.00,VWS V14.01,2013-08-08 22:35:00,
2013-08-08 18:40:00,68.4,66.3,27.96,NNE,22,0.0,0.0,93,0.00,,---,0.00,VWS V14.01,2013-08-08 22:40:00,
2013-08-08 18:45:00,68.4,66.3,27.96,North,0,0.0,0.0,93,0.00,,---,0.00,VWS V14.01,2013-08-08 22:45:00,
2013-08-08 18:50:00,68.2,66.4,27.96,WNW,292,0.0,0.0,94,0.00,,---,0.00,VWS V14.01,2013-08-08 22:50:00,
2013-08-08 18:55:00,68.0,66.2,27.93,WNW,292,0.0,0.0,94,0.00,,---,0.00,VWS V14.01,2013-08-08 22:55:00,
2013-08-08 19:00:00,67.8,66.0,27.93,NNE,22,0.0,0.0,94,0.00,,---,0.00,VWS V14.01,2013-08-08 23:00:00,
2013-08-08 19:05:00,68.0,66.2,27.93,NNE,22,0.0,0.0,94,0.00,,---,0.00,VWS V14.01,2013-08-08 23:05:00,
2013-08-08 19:10:00,68.2,66.7,27.93,NNE,22,0.0,0.0,95,0.00,,---,0.00,VWS V14.01,2013-08-08 23:10:00,
2013-08-08 19:16:00,68.2,66.7,27.93,NNE,22,0.0,0.0,95,0.00,,---,0.00,VWS V14.01,2013-08-08 23:16:00,
2013-08-08 19:21:00,68.2,66.7,27.96,NNE,22,0.0,0.0,95,0.00,,---,0.00,VWS V14.01,2013-08-08 23:21:00,
2013-08-08 19:26:00,68.4,66.9,27.96,NE,45,0.9,0.9,95,0.00,,---,0.00,VWS V14.01,2013-08-08 23:26:00,
2013-08-08 19:31:00,68.5,67.1,27.96,NE,45,0.0,0.0,95,0.00,,---,0.00,VWS V14.01,2013-08-08 23:31:00,
2013-08-08 19:36:00,68.2,66.7,27.96,East,90,0.9,1.1,95,0.00,,---,0.00,VWS V14.01,2013-08-08 23:36:00,
2013-08-08 19:41:00,68.4,66.9,27.96,East,90,0.0,0.0,95,0.00,,---,0.00,VWS V14.01,2013-08-08 23:41:00,
2013-08-08 19:46:00,68.5,67.4,27.96,East,90,0.0,0.0,96,0.00,,---,0.00,VWS V14.01,2013-08-08 23:46:00,
2013-08-08 19:52:00,68.5,67.4,27.99,ENE,68,0.0,0.0,96,0.00,,---,0.00,VWS V14.01,2013-08-08 23:52:00,
2013-08-08 19:57:00,68.7,67.5,27.99,ENE,68,0.0,0.0,96,0.00,,---,0.00,VWS V14.01,2013-08-08 23:57:00,
2013-08-08 20:02:00,68.7,67.5,27.99,North,0,0.0,0.0,96,0.00,,---,0.00,VWS V14.01,2013-08-09 00:02:00,
2013-08-08 20:07:00,68.9,67.7,27.96,North,0,0.0,0.0,96,0.00,,---,0.00,VWS V14.01,2013-08-09 00:07:00,
2013-08-08 20:13:00,69.3,68.1,27.96,North,0,0.0,0.0,96,0.00,,---,0.00,VWS V14.01,2013-08-09 00:13:00,
2013-08-08 20:18:00,69.4,68.2,27.96,North,0,0.0,0.0,96,0.00,,---,0.00,VWS V14.01,2013-08-09 00:18:00,
2013-08-08 20:23:00,69.4,68.2,27.96,North,0,0.0,0.0,96,0.00,,---,0.00,VWS V14.01,2013-08-09 00:23:00,
2013-08-08 20:28:00,69.6,68.4,27.96,North,0,0.0,0.0,96,0.00,,---,0.00,VWS V14.01,2013-08-09 00:28:00,
2013-08-08 20:34:00,69.8,68.6,27.96,North,0,0.0,0.0,96,0.00,,---,0.00,VWS V14.01,2013-08-09 00:34:00,
2013-08-08 20:39:00,69.8,68.6,27.96,North,0,0.0,0.0,96,0.00,,---,0.00,VWS V14.01,2013-08-09 00:39:00,
2013-08-08 20:44:00,69.8,68.6,27.96,North,0,0.0,0.0,96,0.00,,---,0.00,VWS V14.01,2013-08-09 00:44:00,
2013-08-08 20:49:00,69.8,68.6,27.96,North,0,0.0,0.0,96,0.00,,---,0.00,VWS V14.01,2013-08-09 00:49:00,
2013-08-08 20:54:00,69.8,68.6,27.96,North,0,0.0,0.0,96,0.00,,---,0.00,VWS V14.01,2013-08-09 00:54:00,
2013-08-08 20:59:00,69.8,68.6,27.96,North,0,0.0,0.0,96,0.00,,---,0.00,VWS V14.01,2013-08-09 00:59:00,
2013-08-08 21:04:00,69.8,68.6,27.96,North,0,0.0,0.0,96,0.00,,---,0.00,VWS V14.01,2013-08-09 01:04:00,
2013-08-08 21:09:00,69.8,68.6,27.96,NNE,22,0.0,0.0,96,0.00,,---,0.00,VWS V14.01,2013-08-09 01:09:00,
2013-08-08 21:14:00,69.6,68.4,27.96,NE,45,0.0,0.0,96,0.00,,---,0.00,VWS V14.01,2013-08-09 01:14:00,
2013-08-08 21:19:00,69.8,68.6,27.96,NE,45,0.0,0.0,96,0.00,,---,0.00,VWS V14.01,2013-08-09 01:19:00,
2013-08-08 21:24:00,69.8,68.6,27.96,NE,45,0.0,0.0,96,0.00,,---,0.00,VWS V14.01,2013-08-09 01:24:00,
2013-08-08 21:29:00,69.8,68.6,27.96,NE,45,0.0,0.0,96,0.00,,---,0.00,VWS V14.01,2013-08-09 01:29:00,
2013-08-08 21:35:00,69.6,68.4,27.96,NE,45,0.0,0.0,96,0.00,,---,0.00,VWS V14.01,2013-08-09 01:35:00,
2013-08-08 21:40:00,69.6,68.7,27.96,NE,45,0.0,0.0,97,0.00,,---,0.00,VWS V14.01,2013-08-09 01:40:00,
2013-08-08 21:45:00,69.6,68.7,27.96,NE,45,0.0,0.0,97,0.00,,---,0.00,VWS V14.01,2013-08-09 01:45:00,
2013-08-08 21:50:00,69.8,68.6,27.96,ENE,68,0.0,0.0,96,0.00,,---,0.00,VWS V14.01,2013-08-09 01:50:00,
2013-08-08 21:55:00,69.8,68.6,27.96,ENE,68,0.0,0.0,96,0.00,,---,0.00,VWS V14.01,2013-08-09 01:55:00,
2013-08-08 22:00:00,69.8,68.6,27.96,ENE,68,0.0,0.0,96,0.00,,---,0.00,VWS V14.01,2013-08-09 02:00:00,
2013-08-08 22:05:00,69.8,68.6,27.96,SSE,158,0.0,0.0,96,0.00,,---,0.00,VWS V14.01,2013-08-09 02:05:00,
2013-08-08 22:10:00,69.6,68.7,27.96,SSE,158,0.0,0.0,97,0.00,,---,0.00,VWS V14.01,2013-08-09 02:10:00,
2013-08-08 22:15:00,69.6,68.7,27.96,ESE,112,0.0,0.0,97,0.00,,---,0.00,VWS V14.01,2013-08-09 02:15:00,
2013-08-08 22:21:00,69.6,68.7,27.96,ESE,112,0.0,0.0,97,0.00,,---,0.00,VWS V14.01,2013-08-09 02:21:00,
2013-08-08 22:26:00,69.6,68.7,27.96,ESE,112,0.0,0.0,97,0.00,,---,0.00,VWS V14.01,2013-08-09 02:26:00,
2013-08-08 22:31:00,69.4,68.6,27.96,ESE,112,0.0,0.0,97,0.00,,---,0.00,VWS V14.01,2013-08-09 02:31:00,
2013-08-08 22:36:00,69.4,68.6,27.96,ESE,112,0.0,0.0,97,0.00,,---,0.00,VWS V14.01,2013-08-09 02:36:00,
2013-08-08 22:41:00,69.4,68.6,27.96,ESE,112,0.0,0.0,97,0.00,,---,0.00,VWS V14.01,2013-08-09 02:41:00,
2013-08-08 22:46:00,69.3,68.4,27.96,ESE,112,0.0,0.0,97,0.00,,---,0.00,VWS V14.01,2013-08-09 02:46:00,
2013-08-08 22:51:00,69.3,68.4,27.96,ESE,112,0.0,0.0,97,0.00,,---,0.00,VWS V14.01,2013-08-09 02:51:00,
2013-08-08 22:56:00,69.1,68.2,27.96,ESE,112,0.0,0.0,97,0.00,,---,0.00,VWS V14.01,2013-08-09 02:56:00,
2013-08-08 23:01:00,68.9,68.0,27.96,SSE,158,0.0,0.0,97,0.00,,---,0.00,VWS V14.01,2013-08-09 03:01:00,
2013-08-08 23:06:00,68.9,68.0,27.96,ESE,112,0.0,0.0,97,0.00,,---,0.00,VWS V14.01,2013-08-09 03:06:00,
2013-08-08 23:11:00,68.7,67.8,27.96,ESE,112,0.0,0.0,97,0.00,,---,0.00,VWS V14.01,2013-08-09 03:11:00,
2013-08-08 23:16:00,68.7,67.8,27.96,ESE,112,0.0,0.0,97,0.00,,---,0.00,VWS V14.01,2013-08-09 03:16:00,
2013-08-08 23:21:00,68.5,67.7,27.96,ESE,112,0.0,0.0,97,0.00,,---,0.00,VWS V14.01,2013-08-09 03:21:00,
2013-08-08 23:27:00,68.5,67.7,27.96,ESE,112,0.0,0.0,97,0.00,,---,0.00,VWS V14.01,2013-08-09 03:27:00,
2013-08-08 23:32:00,68.5,67.7,27.96,ESE,112,0.0,0.0,97,0.00,,---,0.00,VWS V14.01,2013-08-09 03:32:00,
2013-08-08 23:37:00,68.4,67.5,27.96,SE,135,0.0,0.0,97,0.00,,---,0.00,VWS V14.01,2013-08-09 03:37:00,
2013-08-08 23:42:00,68.2,67.3,27.96,East,90,0.0,0.0,97,0.00,,---,0.00,VWS V14.01,2013-08-09 03:42:00,
2013-08-08 23:48:00,68.0,66.8,27.96,East,90,0.0,0.0,96,0.00,,---,0.00,VWS V14.01,2013-08-09 03:48:00,
2013-08-08 23:53:00,68.0,67.1,27.96,East,90,0.0,0.0,97,0.00,,---,0.00,VWS V14.01,2013-08-09 03:53:00,
2013-08-08 23:58:00,68.0,67.1,27.96,East,90,0.0,0.0,97,0.00,,---,0.00,VWS V14.01,2013-08-09 03:58:00,